Airfield :







YOU CAN JOIN US ON...

 
LOGIN :

Register | Disclaimer

   EN    FR    IT 

 









Legend :    VFR   Marginal VFR   IFR   Intensive IFR   Very Intensive IFR
Visi :
Ceiling :
>= 8 km
>= 3000ft
5 to 8 km
1000 to 3000 ft
1500m to 5 km
500 to 1000 ft
800 to 1500m
200 to 500 ft
< 800m
< 200 ft
Symbols :   Thunderstorms  Fog  Heavy snow  Heavy precipitations  Wind > 20 kt






- Airport Elevation : 577 ft


KVSF - Hartness State (Springfield)

CURRENT METAR :
  • 230725Z AUTO 00000KT 2 1/2SM -RA BR SCT010 BKN015 OVC019 11/11 A2982 RMK AO2 T01060106 PNO $

EXPIRED METARs :
  • 230715Z AUTO 00000KT 1 3/4SM RA BR OVC011 10/10 A2982 RMK AO2 T01000100 PNO $
  • 230654Z AUTO 27004KT 5SM -RA BR OVC011 10/10 A2982 RMK AO2 SLP098 T01000100 PNO $
  • 230640Z AUTO 00000KT 4SM -RA BR FEW008 OVC014 10/10 A2981 RMK AO2 T01000100 PNO $
  • 230615Z AUTO 00000KT 2SM RA BR OVC012 10/10 A2982 RMK AO2 T01000100 PNO $
  • 230607Z AUTO 00000KT 1 3/4SM -RA BR OVC012 10/10 A2983 RMK AO2 T01000100 PNO $
  • 230554Z AUTO 00000KT 5SM -RA BR BKN012 OVC017 10/10 A2983 RMK AO2 SLP102 6//// T01000100 10117 20100 58032 PNO $
  • 230526Z AUTO 00000KT 3SM -RA BR OVC014 10/10 A2985 RMK AO2 T01000100 PNO $
  • 230514Z AUTO 00000KT 4SM RA BR OVC013 10/10 A2985 RMK AO2 T01000100 PNO $
  • 230454Z AUTO 00000KT 6SM -RA BR OVC016 10/10 A2987 RMK AO2 SLP116 T01000100 401500028 PNO $

TAF N/A



MET'MAP, your aeronautical weather chart ! - Copyright ORBIFLY December 2007 - Disclaimer

ORBIFLY MET'MAP TEAM :

Programming & Development : Alexandra Zaïnal
Concept & Development : Baudouin d'Aumeries
Co-Development & Prog : Marc-Olivier Méhu
Technical & hardware support : Manuel Goepfert

Contact : metmap@orbifly.com




SOURCES & CREDITS :

   NOAA